sensor_id;sensor_type;location;lat;lon;timestamp;P1;durP1;ratioP1;P2;durP2;ratioP2
45536;SDS011;31262;51.978;5.924;2022-08-19T00:01:18;4.57;;;1.50;;
45536;SDS011;31262;51.978;5.924;2022-08-19T00:03:44;2.80;;;1.42;;
45536;SDS011;31262;51.978;5.924;2022-08-19T00:06:10;2.50;;;1.50;;
45536;SDS011;31262;51.978;5.924;2022-08-19T00:08:35;2.75;;;1.42;;
45536;SDS011;31262;51.978;5.924;2022-08-19T00:11:01;3.90;;;1.73;;
45536;SDS011;31262;51.978;5.924;2022-08-19T00:13:27;3.70;;;1.55;;
45536;SDS011;31262;51.978;5.924;2022-08-19T00:15:53;3.17;;;1.35;;
45536;SDS011;31262;51.978;5.924;2022-08-19T00:18:20;2.85;;;1.52;;
45536;SDS011;31262;51.978;5.924;2022-08-19T00:20:45;3.20;;;1.30;;
45536;SDS011;31262;51.978;5.924;2022-08-19T00:23:11;2.55;;;1.38;;
45536;SDS011;31262;51.978;5.924;2022-08-19T00:25:36;2.38;;;1.10;;
45536;SDS011;31262;51.978;5.924;2022-08-19T00:28:02;2.78;;;1.50;;
45536;SDS011;31262;51.978;5.924;2022-08-19T00:30:29;2.72;;;1.52;;
45536;SDS011;31262;51.978;5.924;2022-08-19T00:32:55;3.30;;;1.40;;
45536;SDS011;31262;51.978;5.924;2022-08-19T00:35:21;2.55;;;1.20;;
45536;SDS011;31262;51.978;5.924;2022-08-19T00:37:48;3.60;;;1.77;;
45536;SDS011;31262;51.978;5.924;2022-08-19T00:40:15;2.97;;;1.70;;
45536;SDS011;31262;51.978;5.924;2022-08-19T00:42:43;3.08;;;1.60;;
45536;SDS011;31262;51.978;5.924;2022-08-19T00:45:17;2.67;;;1.70;;
45536;SDS011;31262;51.978;5.924;2022-08-19T00:47:45;3.22;;;1.83;;
45536;SDS011;31262;51.978;5.924;2022-08-19T00:50:12;3.22;;;1.60;;
45536;SDS011;31262;51.978;5.924;2022-08-19T00:52:42;2.63;;;1.77;;
45536;SDS011;31262;51.978;5.924;2022-08-19T00:57:40;2.55;;;1.52;;
45536;SDS011;31262;51.978;5.924;2022-08-19T01:00:11;3.10;;;1.70;;
45536;SDS011;31262;51.978;5.924;2022-08-19T01:02:39;3.53;;;1.83;;
45536;SDS011;31262;51.978;5.924;2022-08-19T01:05:06;3.13;;;1.95;;
45536;SDS011;31262;51.978;5.924;2022-08-19T01:07:35;3.90;;;1.77;;
45536;SDS011;31262;51.978;5.924;2022-08-19T01:10:03;3.03;;;1.83;;
45536;SDS011;31262;51.978;5.924;2022-08-19T01:12:31;3.53;;;1.92;;
45536;SDS011;31262;51.978;5.924;2022-08-19T01:14:57;3.00;;;1.98;;
45536;SDS011;31262;51.978;5.924;2022-08-19T01:17:23;3.47;;;1.45;;
45536;SDS011;31262;51.978;5.924;2022-08-19T01:19:49;4.60;;;2.30;;
45536;SDS011;31262;51.978;5.924;2022-08-19T01:22:17;4.32;;;2.20;;
45536;SDS011;31262;51.978;5.924;2022-08-19T01:25:24;4.18;;;2.08;;
45536;SDS011;31262;51.978;5.924;2022-08-19T01:28:00;4.00;;;2.25;;
45536;SDS011;31262;51.978;5.924;2022-08-19T01:30:30;3.58;;;2.75;;
45536;SDS011;31262;51.978;5.924;2022-08-19T01:32:58;6.93;;;3.38;;
45536;SDS011;31262;51.978;5.924;2022-08-19T01:35:30;4.60;;;3.33;;
45536;SDS011;31262;51.978;5.924;2022-08-19T01:37:58;4.30;;;3.15;;
45536;SDS011;31262;51.978;5.924;2022-08-19T01:42:52;3.67;;;2.88;;
45536;SDS011;31262;51.978;5.924;2022-08-19T01:45:19;4.07;;;2.38;;
45536;SDS011;31262;51.978;5.924;2022-08-19T01:47:47;3.67;;;2.70;;
45536;SDS011;31262;51.978;5.924;2022-08-19T01:50:13;3.72;;;2.75;;
45536;SDS011;31262;51.978;5.924;2022-08-19T01:52:39;5.40;;;3.60;;
45536;SDS011;31262;51.978;5.924;2022-08-19T01:55:07;4.47;;;3.33;;
45536;SDS011;31262;51.978;5.924;2022-08-19T01:57:37;4.78;;;3.28;;
45536;SDS011;31262;51.978;5.924;2022-08-19T02:00:05;4.30;;;3.00;;
45536;SDS011;31262;51.978;5.924;2022-08-19T02:02:33;4.40;;;3.38;;
45536;SDS011;31262;51.978;5.924;2022-08-19T02:04:59;5.28;;;3.38;;
45536;SDS011;31262;51.978;5.924;2022-08-19T02:07:25;4.53;;;3.47;;
45536;SDS011;31262;51.978;5.924;2022-08-19T02:09:50;5.22;;;3.10;;
45536;SDS011;31262;51.978;5.924;2022-08-19T02:12:16;4.43;;;3.22;;
45536;SDS011;31262;51.978;5.924;2022-08-19T02:14:41;4.10;;;3.28;;
45536;SDS011;31262;51.978;5.924;2022-08-19T02:17:07;3.60;;;2.25;;
45536;SDS011;31262;51.978;5.924;2022-08-19T02:19:33;4.85;;;3.67;;
45536;SDS011;31262;51.978;5.924;2022-08-19T02:21:59;4.88;;;3.78;;
45536;SDS011;31262;51.978;5.924;2022-08-19T02:24:26;5.03;;;3.50;;
45536;SDS011;31262;51.978;5.924;2022-08-19T02:26:52;5.10;;;3.72;;
45536;SDS011;31262;51.978;5.924;2022-08-19T02:29:18;4.55;;;3.65;;
45536;SDS011;31262;51.978;5.924;2022-08-19T02:31:44;5.93;;;3.58;;
45536;SDS011;31262;51.978;5.924;2022-08-19T02:34:10;4.70;;;3.60;;
45536;SDS011;31262;51.978;5.924;2022-08-19T02:36:36;5.72;;;3.25;;
45536;SDS011;31262;51.978;5.924;2022-08-19T02:39:02;4.70;;;3.45;;
45536;SDS011;31262;51.978;5.924;2022-08-19T02:41:29;5.65;;;3.50;;
45536;SDS011;31262;51.978;5.924;2022-08-19T02:43:57;4.32;;;3.05;;
45536;SDS011;31262;51.978;5.924;2022-08-19T02:46:27;4.28;;;3.50;;
45536;SDS011;31262;51.978;5.924;2022-08-19T02:48:55;5.22;;;3.25;;
45536;SDS011;31262;51.978;5.924;2022-08-19T02:51:23;5.50;;;3.85;;
45536;SDS011;31262;51.978;5.924;2022-08-19T02:56:16;4.95;;;3.90;;
45536;SDS011;31262;51.978;5.924;2022-08-19T02:58:42;5.53;;;3.75;;
45536;SDS011;31262;51.978;5.924;2022-08-19T03:01:08;4.65;;;3.67;;
45536;SDS011;31262;51.978;5.924;2022-08-19T03:03:35;6.32;;;4.40;;
45536;SDS011;31262;51.978;5.924;2022-08-19T03:06:12;4.90;;;3.50;;
45536;SDS011;31262;51.978;5.924;2022-08-19T03:08:39;4.63;;;3.80;;
45536;SDS011;31262;51.978;5.924;2022-08-19T03:11:12;4.95;;;3.85;;
45536;SDS011;31262;51.978;5.924;2022-08-19T03:13:46;5.35;;;2.50;;
45536;SDS011;31262;51.978;5.924;2022-08-19T03:16:14;5.63;;;3.58;;
45536;SDS011;31262;51.978;5.924;2022-08-19T03:18:41;5.68;;;4.28;;
45536;SDS011;31262;51.978;5.924;2022-08-19T03:21:07;4.88;;;3.53;;
45536;SDS011;31262;51.978;5.924;2022-08-19T03:23:32;6.30;;;4.57;;
45536;SDS011;31262;51.978;5.924;2022-08-19T03:25:58;6.95;;;4.22;;
45536;SDS011;31262;51.978;5.924;2022-08-19T03:28:24;4.78;;;3.70;;
45536;SDS011;31262;51.978;5.924;2022-08-19T03:31:00;6.28;;;4.32;;
45536;SDS011;31262;51.978;5.924;2022-08-19T03:33:31;5.65;;;4.13;;
45536;SDS011;31262;51.978;5.924;2022-08-19T03:36:12;6.00;;;4.35;;
45536;SDS011;31262;51.978;5.924;2022-08-19T03:38:41;5.22;;;3.78;;
45536;SDS011;31262;51.978;5.924;2022-08-19T03:41:10;6.38;;;4.00;;
45536;SDS011;31262;51.978;5.924;2022-08-19T03:43:39;6.40;;;4.55;;
45536;SDS011;31262;51.978;5.924;2022-08-19T03:46:07;6.63;;;4.50;;
45536;SDS011;31262;51.978;5.924;2022-08-19T03:48:35;5.15;;;3.47;;
45536;SDS011;31262;51.978;5.924;2022-08-19T03:51:02;5.75;;;4.07;;
45536;SDS011;31262;51.978;5.924;2022-08-19T03:53:28;7.28;;;4.78;;
45536;SDS011;31262;51.978;5.924;2022-08-19T03:55:55;6.97;;;4.82;;
45536;SDS011;31262;51.978;5.924;2022-08-19T03:58:22;5.15;;;4.05;;
45536;SDS011;31262;51.978;5.924;2022-08-19T04:00:48;5.85;;;4.85;;
45536;SDS011;31262;51.978;5.924;2022-08-19T04:03:14;7.00;;;5.13;;
45536;SDS011;31262;51.978;5.924;2022-08-19T04:05:40;6.40;;;5.05;;
45536;SDS011;31262;51.978;5.924;2022-08-19T04:08:06;4.95;;;3.60;;
45536;SDS011;31262;51.978;5.924;2022-08-19T04:10:37;6.70;;;4.70;;
45536;SDS011;31262;51.978;5.924;2022-08-19T04:13:04;5.97;;;4.82;;
45536;SDS011;31262;51.978;5.924;2022-08-19T04:15:31;7.03;;;5.32;;
45536;SDS011;31262;51.978;5.924;2022-08-19T04:18:03;7.80;;;5.25;;
45536;SDS011;31262;51.978;5.924;2022-08-19T04:20:31;6.50;;;5.07;;
45536;SDS011;31262;51.978;5.924;2022-08-19T04:22:56;4.80;;;4.00;;
45536;SDS011;31262;51.978;5.924;2022-08-19T04:25:22;6.68;;;4.40;;
45536;SDS011;31262;51.978;5.924;2022-08-19T04:27:47;6.32;;;4.35;;
45536;SDS011;31262;51.978;5.924;2022-08-19T04:30:13;7.03;;;4.93;;
45536;SDS011;31262;51.978;5.924;2022-08-19T04:32:39;6.07;;;4.97;;
45536;SDS011;31262;51.978;5.924;2022-08-19T04:35:05;6.78;;;5.40;;
45536;SDS011;31262;51.978;5.924;2022-08-19T04:37:31;6.95;;;5.40;;
45536;SDS011;31262;51.978;5.924;2022-08-19T04:39:58;6.13;;;5.30;;
45536;SDS011;31262;51.978;5.924;2022-08-19T04:42:43;6.20;;;5.32;;
45536;SDS011;31262;51.978;5.924;2022-08-19T04:45:11;5.65;;;2.70;;
45536;SDS011;31262;51.978;5.924;2022-08-19T04:50:04;4.40;;;3.38;;
45536;SDS011;31262;51.978;5.924;2022-08-19T04:52:31;5.97;;;4.90;;
45536;SDS011;31262;51.978;5.924;2022-08-19T04:54:57;4.30;;;2.50;;
45536;SDS011;31262;51.978;5.924;2022-08-19T04:57:23;3.28;;;2.25;;
45536;SDS011;31262;51.978;5.924;2022-08-19T04:59:49;3.83;;;2.50;;
45536;SDS011;31262;51.978;5.924;2022-08-19T05:02:19;3.25;;;2.00;;
45536;SDS011;31262;51.978;5.924;2022-08-19T05:04:45;4.45;;;3.40;;
45536;SDS011;31262;51.978;5.924;2022-08-19T05:07:10;5.07;;;3.45;;
45536;SDS011;31262;51.978;5.924;2022-08-19T05:09:36;4.45;;;2.63;;
45536;SDS011;31262;51.978;5.924;2022-08-19T05:12:02;6.70;;;4.22;;
45536;SDS011;31262;51.978;5.924;2022-08-19T05:14:28;5.28;;;2.72;;
45536;SDS011;31262;51.978;5.924;2022-08-19T05:16:54;5.90;;;4.70;;
45536;SDS011;31262;51.978;5.924;2022-08-19T05:19:19;8.20;;;5.35;;
45536;SDS011;31262;51.978;5.924;2022-08-19T05:22:03;7.22;;;5.40;;
45536;SDS011;31262;51.978;5.924;2022-08-19T05:24:47;8.38;;;6.07;;
45536;SDS011;31262;51.978;5.924;2022-08-19T05:27:13;8.15;;;5.63;;
45536;SDS011;31262;51.978;5.924;2022-08-19T05:29:39;9.63;;;6.32;;
45536;SDS011;31262;51.978;5.924;2022-08-19T05:32:05;9.05;;;6.63;;
45536;SDS011;31262;51.978;5.924;2022-08-19T05:34:35;7.88;;;5.90;;
45536;SDS011;31262;51.978;5.924;2022-08-19T05:37:03;9.40;;;6.45;;
45536;SDS011;31262;51.978;5.924;2022-08-19T05:39:31;8.25;;;5.80;;
45536;SDS011;31262;51.978;5.924;2022-08-19T05:41:59;8.90;;;7.10;;
45536;SDS011;31262;51.978;5.924;2022-08-19T05:44:28;9.25;;;7.45;;
45536;SDS011;31262;51.978;5.924;2022-08-19T05:46:56;11.68;;;9.80;;
45536;SDS011;31262;51.978;5.924;2022-08-19T05:49:23;11.70;;;9.73;;
45536;SDS011;31262;51.978;5.924;2022-08-19T05:51:50;13.93;;;11.10;;
45536;SDS011;31262;51.978;5.924;2022-08-19T05:54:16;12.98;;;10.43;;
45536;SDS011;31262;51.978;5.924;2022-08-19T05:56:42;11.23;;;9.65;;
45536;SDS011;31262;51.978;5.924;2022-08-19T05:59:10;11.35;;;10.00;;
45536;SDS011;31262;51.978;5.924;2022-08-19T06:01:37;13.25;;;10.90;;
45536;SDS011;31262;51.978;5.924;2022-08-19T06:04:05;11.27;;;9.70;;
45536;SDS011;31262;51.978;5.924;2022-08-19T06:06:31;13.38;;;10.50;;
45536;SDS011;31262;51.978;5.924;2022-08-19T06:08:59;11.73;;;9.32;;
45536;SDS011;31262;51.978;5.924;2022-08-19T06:14:05;13.95;;;10.65;;
45536;SDS011;31262;51.978;5.924;2022-08-19T06:16:34;12.60;;;10.40;;
45536;SDS011;31262;51.978;5.924;2022-08-19T06:19:02;13.32;;;10.27;;
45536;SDS011;31262;51.978;5.924;2022-08-19T06:21:31;12.10;;;10.45;;
45536;SDS011;31262;51.978;5.924;2022-08-19T06:23:57;14.13;;;11.63;;
45536;SDS011;31262;51.978;5.924;2022-08-19T06:26:24;14.43;;;11.82;;
45536;SDS011;31262;51.978;5.924;2022-08-19T06:28:50;12.85;;;10.85;;
45536;SDS011;31262;51.978;5.924;2022-08-19T06:31:16;14.02;;;12.18;;
45536;SDS011;31262;51.978;5.924;2022-08-19T06:33:45;16.40;;;13.35;;
45536;SDS011;31262;51.978;5.924;2022-08-19T06:38:43;16.20;;;12.52;;
45536;SDS011;31262;51.978;5.924;2022-08-19T06:41:08;17.60;;;13.20;;
45536;SDS011;31262;51.978;5.924;2022-08-19T06:43:35;19.27;;;15.73;;
45536;SDS011;31262;51.978;5.924;2022-08-19T06:46:01;16.85;;;12.77;;
45536;SDS011;31262;51.978;5.924;2022-08-19T06:48:28;17.25;;;13.15;;
45536;SDS011;31262;51.978;5.924;2022-08-19T06:50:54;19.48;;;14.40;;
45536;SDS011;31262;51.978;5.924;2022-08-19T06:53:20;20.63;;;15.38;;
45536;SDS011;31262;51.978;5.924;2022-08-19T06:55:46;24.90;;;18.27;;
45536;SDS011;31262;51.978;5.924;2022-08-19T06:58:12;27.77;;;18.17;;
45536;SDS011;31262;51.978;5.924;2022-08-19T07:00:37;26.23;;;18.45;;
45536;SDS011;31262;51.978;5.924;2022-08-19T07:03:03;41.65;;;26.23;;
45536;SDS011;31262;51.978;5.924;2022-08-19T07:05:29;41.50;;;25.52;;
45536;SDS011;31262;51.978;5.924;2022-08-19T07:07:54;36.00;;;23.55;;
45536;SDS011;31262;51.978;5.924;2022-08-19T07:10:21;40.60;;;25.92;;
45536;SDS011;31262;51.978;5.924;2022-08-19T07:12:46;46.25;;;28.60;;
45536;SDS011;31262;51.978;5.924;2022-08-19T07:15:12;45.50;;;24.77;;
45536;SDS011;31262;51.978;5.924;2022-08-19T07:17:38;36.20;;;21.10;;
45536;SDS011;31262;51.978;5.924;2022-08-19T07:20:05;43.63;;;25.65;;
45536;SDS011;31262;51.978;5.924;2022-08-19T07:22:33;48.08;;;27.13;;
45536;SDS011;31262;51.978;5.924;2022-08-19T07:24:59;46.58;;;27.13;;
45536;SDS011;31262;51.978;5.924;2022-08-19T07:27:25;39.08;;;23.70;;
45536;SDS011;31262;51.978;5.924;2022-08-19T07:29:51;42.55;;;25.17;;
45536;SDS011;31262;51.978;5.924;2022-08-19T07:32:18;50.08;;;31.20;;
45536;SDS011;31262;51.978;5.924;2022-08-19T07:34:43;54.95;;;32.05;;
45536;SDS011;31262;51.978;5.924;2022-08-19T07:37:10;58.92;;;34.53;;
45536;SDS011;31262;51.978;5.924;2022-08-19T07:39:36;58.55;;;35.33;;
45536;SDS011;31262;51.978;5.924;2022-08-19T07:42:05;49.95;;;30.92;;
45536;SDS011;31262;51.978;5.924;2022-08-19T07:44:34;48.72;;;30.67;;
45536;SDS011;31262;51.978;5.924;2022-08-19T07:47:01;56.25;;;35.10;;
45536;SDS011;31262;51.978;5.924;2022-08-19T07:49:28;50.25;;;31.88;;
45536;SDS011;31262;51.978;5.924;2022-08-19T07:51:55;49.95;;;31.25;;
45536;SDS011;31262;51.978;5.924;2022-08-19T07:54:26;53.33;;;34.10;;
45536;SDS011;31262;51.978;5.924;2022-08-19T07:56:54;54.40;;;34.50;;
45536;SDS011;31262;51.978;5.924;2022-08-19T07:59:20;69.03;;;42.65;;
45536;SDS011;31262;51.978;5.924;2022-08-19T08:01:46;58.17;;;36.72;;
45536;SDS011;31262;51.978;5.924;2022-08-19T08:04:14;53.33;;;33.90;;
45536;SDS011;31262;51.978;5.924;2022-08-19T08:06:58;67.95;;;42.38;;
45536;SDS011;31262;51.978;5.924;2022-08-19T08:09:42;70.68;;;43.53;;
45536;SDS011;31262;51.978;5.924;2022-08-19T08:12:11;60.90;;;37.42;;
45536;SDS011;31262;51.978;5.924;2022-08-19T08:14:41;65.85;;;43.13;;
45536;SDS011;31262;51.978;5.924;2022-08-19T08:17:11;65.38;;;43.70;;
45536;SDS011;31262;51.978;5.924;2022-08-19T08:22:09;55.25;;;37.47;;
45536;SDS011;31262;51.978;5.924;2022-08-19T08:25:21;48.28;;;36.17;;
45536;SDS011;31262;51.978;5.924;2022-08-19T08:27:47;46.58;;;34.45;;
45536;SDS011;31262;51.978;5.924;2022-08-19T08:30:19;45.42;;;34.30;;
45536;SDS011;31262;51.978;5.924;2022-08-19T08:32:47;46.35;;;33.63;;
45536;SDS011;31262;51.978;5.924;2022-08-19T08:35:14;49.00;;;35.88;;
45536;SDS011;31262;51.978;5.924;2022-08-19T08:37:42;46.65;;;32.83;;
45536;SDS011;31262;51.978;5.924;2022-08-19T08:43:02;39.25;;;28.85;;
45536;SDS011;31262;51.978;5.924;2022-08-19T08:45:37;37.70;;;27.58;;
45536;SDS011;31262;51.978;5.924;2022-08-19T08:51:22;36.28;;;27.75;;
45536;SDS011;31262;51.978;5.924;2022-08-19T08:53:51;36.55;;;27.98;;
45536;SDS011;31262;51.978;5.924;2022-08-19T08:56:18;33.45;;;24.60;;
45536;SDS011;31262;51.978;5.924;2022-08-19T09:01:19;32.40;;;24.55;;
45536;SDS011;31262;51.978;5.924;2022-08-19T09:03:45;28.40;;;21.40;;
45536;SDS011;31262;51.978;5.924;2022-08-19T09:08:54;28.75;;;21.75;;
45536;SDS011;31262;51.978;5.924;2022-08-19T09:11:44;28.88;;;20.58;;
45536;SDS011;31262;51.978;5.924;2022-08-19T09:14:32;28.60;;;21.60;;
45536;SDS011;31262;51.978;5.924;2022-08-19T09:16:58;24.38;;;18.25;;
45536;SDS011;31262;51.978;5.924;2022-08-19T09:19:24;29.05;;;21.50;;
45536;SDS011;31262;51.978;5.924;2022-08-19T09:21:50;35.30;;;25.92;;
45536;SDS011;31262;51.978;5.924;2022-08-19T09:24:16;27.52;;;20.65;;
45536;SDS011;31262;51.978;5.924;2022-08-19T09:26:41;24.23;;;17.55;;
45536;SDS011;31262;51.978;5.924;2022-08-19T09:29:08;26.73;;;20.63;;
45536;SDS011;31262;51.978;5.924;2022-08-19T09:31:35;26.30;;;20.45;;
45536;SDS011;31262;51.978;5.924;2022-08-19T09:34:01;27.55;;;20.55;;
45536;SDS011;31262;51.978;5.924;2022-08-19T09:36:29;23.85;;;16.92;;
45536;SDS011;31262;51.978;5.924;2022-08-19T09:39:00;21.00;;;15.93;;
45536;SDS011;31262;51.978;5.924;2022-08-19T09:41:28;25.38;;;17.05;;
45536;SDS011;31262;51.978;5.924;2022-08-19T09:43:54;19.60;;;15.68;;
45536;SDS011;31262;51.978;5.924;2022-08-19T09:46:22;19.27;;;15.13;;
45536;SDS011;31262;51.978;5.924;2022-08-19T09:48:50;20.70;;;14.15;;
45536;SDS011;31262;51.978;5.924;2022-08-19T09:51:19;18.52;;;13.68;;
45536;SDS011;31262;51.978;5.924;2022-08-19T09:53:46;17.73;;;14.25;;
45536;SDS011;31262;51.978;5.924;2022-08-19T09:56:15;22.75;;;15.55;;
45536;SDS011;31262;51.978;5.924;2022-08-19T09:58:41;23.05;;;14.98;;
45536;SDS011;31262;51.978;5.924;2022-08-19T10:01:07;20.90;;;14.23;;
45536;SDS011;31262;51.978;5.924;2022-08-19T10:03:34;19.45;;;13.13;;
45536;SDS011;31262;51.978;5.924;2022-08-19T10:06:02;16.98;;;12.18;;
45536;SDS011;31262;51.978;5.924;2022-08-19T10:08:34;18.63;;;12.65;;
45536;SDS011;31262;51.978;5.924;2022-08-19T10:11:02;18.90;;;12.63;;
45536;SDS011;31262;51.978;5.924;2022-08-19T10:13:29;18.15;;;13.20;;
45536;SDS011;31262;51.978;5.924;2022-08-19T10:16:01;19.83;;;12.20;;
45536;SDS011;31262;51.978;5.924;2022-08-19T10:18:32;17.27;;;11.15;;
45536;SDS011;31262;51.978;5.924;2022-08-19T10:21:41;16.85;;;11.82;;
45536;SDS011;31262;51.978;5.924;2022-08-19T10:23:51;16.90;;;11.43;;
45536;SDS011;31262;51.978;5.924;2022-08-19T10:26:19;23.35;;;14.57;;
45536;SDS011;31262;51.978;5.924;2022-08-19T10:31:17;17.10;;;11.38;;
45536;SDS011;31262;51.978;5.924;2022-08-19T10:33:46;22.23;;;15.35;;
45536;SDS011;31262;51.978;5.924;2022-08-19T10:36:14;19.67;;;13.98;;
45536;SDS011;31262;51.978;5.924;2022-08-19T10:38:45;20.63;;;14.18;;
45536;SDS011;31262;51.978;5.924;2022-08-19T10:41:13;17.83;;;12.63;;
45536;SDS011;31262;51.978;5.924;2022-08-19T10:43:41;22.67;;;14.32;;
45536;SDS011;31262;51.978;5.924;2022-08-19T10:46:08;19.95;;;12.77;;
45536;SDS011;31262;51.978;5.924;2022-08-19T10:48:36;19.85;;;12.30;;
45536;SDS011;31262;51.978;5.924;2022-08-19T10:51:02;22.30;;;12.93;;
45536;SDS011;31262;51.978;5.924;2022-08-19T10:53:46;20.10;;;12.93;;
45536;SDS011;31262;51.978;5.924;2022-08-19T10:56:12;22.88;;;15.90;;
45536;SDS011;31262;51.978;5.924;2022-08-19T10:58:57;14.65;;;11.32;;
45536;SDS011;31262;51.978;5.924;2022-08-19T11:01:24;15.77;;;11.43;;
45536;SDS011;31262;51.978;5.924;2022-08-19T11:03:50;20.10;;;14.50;;
45536;SDS011;31262;51.978;5.924;2022-08-19T11:06:17;19.98;;;14.27;;
45536;SDS011;31262;51.978;5.924;2022-08-19T11:08:44;18.58;;;12.27;;
45536;SDS011;31262;51.978;5.924;2022-08-19T11:11:10;17.25;;;11.95;;
45536;SDS011;31262;51.978;5.924;2022-08-19T11:13:37;15.07;;;11.43;;
45536;SDS011;31262;51.978;5.924;2022-08-19T11:18:30;16.80;;;11.85;;
45536;SDS011;31262;51.978;5.924;2022-08-19T11:21:04;15.05;;;9.77;;
45536;SDS011;31262;51.978;5.924;2022-08-19T11:23:38;16.17;;;10.93;;
45536;SDS011;31262;51.978;5.924;2022-08-19T11:26:04;15.70;;;11.98;;
45536;SDS011;31262;51.978;5.924;2022-08-19T11:28:30;17.00;;;11.02;;
45536;SDS011;31262;51.978;5.924;2022-08-19T11:30:55;15.40;;;10.50;;
45536;SDS011;31262;51.978;5.924;2022-08-19T11:33:21;14.60;;;9.82;;
45536;SDS011;31262;51.978;5.924;2022-08-19T11:35:47;15.10;;;8.18;;
45536;SDS011;31262;51.978;5.924;2022-08-19T11:38:14;15.30;;;9.10;;
45536;SDS011;31262;51.978;5.924;2022-08-19T11:40:39;15.07;;;9.77;;
45536;SDS011;31262;51.978;5.924;2022-08-19T11:43:07;12.55;;;8.02;;
45536;SDS011;31262;51.978;5.924;2022-08-19T11:45:33;12.43;;;8.85;;
45536;SDS011;31262;51.978;5.924;2022-08-19T11:47:59;12.40;;;8.65;;
45536;SDS011;31262;51.978;5.924;2022-08-19T11:50:24;12.20;;;8.43;;
45536;SDS011;31262;51.978;5.924;2022-08-19T11:52:52;11.80;;;8.55;;
45536;SDS011;31262;51.978;5.924;2022-08-19T11:55:19;14.02;;;9.13;;
45536;SDS011;31262;51.978;5.924;2022-08-19T11:57:45;12.82;;;8.55;;
45536;SDS011;31262;51.978;5.924;2022-08-19T12:00:12;12.18;;;7.90;;
45536;SDS011;31262;51.978;5.924;2022-08-19T12:02:38;8.57;;;5.68;;
45536;SDS011;31262;51.978;5.924;2022-08-19T12:05:05;12.80;;;8.23;;
45536;SDS011;31262;51.978;5.924;2022-08-19T12:07:33;11.55;;;7.60;;
45536;SDS011;31262;51.978;5.924;2022-08-19T12:09:59;11.68;;;7.53;;
45536;SDS011;31262;51.978;5.924;2022-08-19T12:12:26;12.75;;;8.15;;
45536;SDS011;31262;51.978;5.924;2022-08-19T12:14:52;11.80;;;8.25;;
45536;SDS011;31262;51.978;5.924;2022-08-19T12:17:22;14.35;;;9.43;;
45536;SDS011;31262;51.978;5.924;2022-08-19T12:19:48;11.52;;;8.13;;
45536;SDS011;31262;51.978;5.924;2022-08-19T12:22:14;10.00;;;7.20;;
45536;SDS011;31262;51.978;5.924;2022-08-19T12:24:39;11.93;;;8.40;;
45536;SDS011;31262;51.978;5.924;2022-08-19T12:27:05;13.70;;;9.02;;
45536;SDS011;31262;51.978;5.924;2022-08-19T12:29:31;13.10;;;9.57;;
45536;SDS011;31262;51.978;5.924;2022-08-19T12:31:57;9.38;;;7.30;;
45536;SDS011;31262;51.978;5.924;2022-08-19T12:34:26;13.63;;;10.85;;
45536;SDS011;31262;51.978;5.924;2022-08-19T12:36:55;12.68;;;8.88;;
45536;SDS011;31262;51.978;5.924;2022-08-19T12:39:22;11.57;;;8.20;;
45536;SDS011;31262;51.978;5.924;2022-08-19T12:41:47;12.25;;;9.35;;
45536;SDS011;31262;51.978;5.924;2022-08-19T12:44:14;16.70;;;11.82;;
45536;SDS011;31262;51.978;5.924;2022-08-19T12:46:40;13.93;;;10.15;;
45536;SDS011;31262;51.978;5.924;2022-08-19T12:49:05;13.02;;;10.27;;
45536;SDS011;31262;51.978;5.924;2022-08-19T12:51:31;10.95;;;7.43;;
45536;SDS011;31262;51.978;5.924;2022-08-19T12:53:56;11.82;;;7.35;;
45536;SDS011;31262;51.978;5.924;2022-08-19T12:56:22;12.48;;;8.57;;
45536;SDS011;31262;51.978;5.924;2022-08-19T12:58:48;10.18;;;7.93;;
45536;SDS011;31262;51.978;5.924;2022-08-19T13:01:14;11.80;;;9.02;;
45536;SDS011;31262;51.978;5.924;2022-08-19T13:03:41;12.85;;;9.27;;
45536;SDS011;31262;51.978;5.924;2022-08-19T13:06:08;14.50;;;10.70;;
45536;SDS011;31262;51.978;5.924;2022-08-19T13:08:34;13.32;;;10.32;;
45536;SDS011;31262;51.978;5.924;2022-08-19T13:11:17;13.07;;;10.88;;
45536;SDS011;31262;51.978;5.924;2022-08-19T13:13:45;13.63;;;11.63;;
45536;SDS011;31262;51.978;5.924;2022-08-19T13:18:38;11.90;;;9.10;;
45536;SDS011;31262;51.978;5.924;2022-08-19T13:21:06;9.63;;;8.23;;
45536;SDS011;31262;51.978;5.924;2022-08-19T13:23:33;11.70;;;9.90;;
45536;SDS011;31262;51.978;5.924;2022-08-19T13:26:02;15.00;;;10.45;;
45536;SDS011;31262;51.978;5.924;2022-08-19T13:28:30;12.55;;;9.88;;
45536;SDS011;31262;51.978;5.924;2022-08-19T13:31:16;15.20;;;12.90;;
45536;SDS011;31262;51.978;5.924;2022-08-19T13:34:02;12.85;;;10.55;;
45536;SDS011;31262;51.978;5.924;2022-08-19T13:36:28;11.45;;;9.77;;
45536;SDS011;31262;51.978;5.924;2022-08-19T13:38:53;12.43;;;9.88;;
45536;SDS011;31262;51.978;5.924;2022-08-19T13:41:19;12.18;;;8.55;;
45536;SDS011;31262;51.978;5.924;2022-08-19T13:43:45;16.35;;;11.00;;
45536;SDS011;31262;51.978;5.924;2022-08-19T13:46:11;10.27;;;8.35;;
45536;SDS011;31262;51.978;5.924;2022-08-19T13:51:08;12.77;;;10.95;;
45536;SDS011;31262;51.978;5.924;2022-08-19T13:53:35;8.95;;;7.40;;
45536;SDS011;31262;51.978;5.924;2022-08-19T13:56:12;10.57;;;8.63;;
45536;SDS011;31262;51.978;5.924;2022-08-19T13:58:39;11.57;;;7.10;;
45536;SDS011;31262;51.978;5.924;2022-08-19T14:01:05;9.55;;;6.93;;
45536;SDS011;31262;51.978;5.924;2022-08-19T14:03:31;8.90;;;7.20;;
45536;SDS011;31262;51.978;5.924;2022-08-19T14:05:57;8.25;;;6.57;;
45536;SDS011;31262;51.978;5.924;2022-08-19T14:08:23;7.65;;;5.78;;
45536;SDS011;31262;51.978;5.924;2022-08-19T14:10:50;10.48;;;6.75;;
45536;SDS011;31262;51.978;5.924;2022-08-19T14:13:17;9.05;;;7.50;;
45536;SDS011;31262;51.978;5.924;2022-08-19T14:15:46;10.77;;;8.88;;
45536;SDS011;31262;51.978;5.924;2022-08-19T14:18:12;11.82;;;9.35;;
45536;SDS011;31262;51.978;5.924;2022-08-19T14:20:38;18.27;;;15.73;;
45536;SDS011;31262;51.978;5.924;2022-08-19T14:23:04;14.07;;;11.68;;
45536;SDS011;31262;51.978;5.924;2022-08-19T14:25:31;12.57;;;10.13;;
45536;SDS011;31262;51.978;5.924;2022-08-19T14:27:57;11.10;;;9.27;;
45536;SDS011;31262;51.978;5.924;2022-08-19T14:30:24;10.02;;;7.45;;
45536;SDS011;31262;51.978;5.924;2022-08-19T14:32:53;10.73;;;8.82;;
45536;SDS011;31262;51.978;5.924;2022-08-19T14:35:19;10.75;;;8.77;;
45536;SDS011;31262;51.978;5.924;2022-08-19T14:37:47;10.90;;;8.80;;
45536;SDS011;31262;51.978;5.924;2022-08-19T14:40:17;9.73;;;7.53;;
45536;SDS011;31262;51.978;5.924;2022-08-19T14:42:50;8.65;;;6.93;;
45536;SDS011;31262;51.978;5.924;2022-08-19T14:45:24;12.70;;;8.65;;
45536;SDS011;31262;51.978;5.924;2022-08-19T14:47:50;10.10;;;7.65;;
45536;SDS011;31262;51.978;5.924;2022-08-19T14:50:17;12.25;;;9.02;;
45536;SDS011;31262;51.978;5.924;2022-08-19T14:52:43;14.50;;;9.60;;
45536;SDS011;31262;51.978;5.924;2022-08-19T14:55:09;16.60;;;10.50;;
45536;SDS011;31262;51.978;5.924;2022-08-19T14:57:35;11.45;;;8.80;;
45536;SDS011;31262;51.978;5.924;2022-08-19T15:00:01;11.27;;;8.75;;
45536;SDS011;31262;51.978;5.924;2022-08-19T15:02:27;9.70;;;7.82;;
45536;SDS011;31262;51.978;5.924;2022-08-19T15:04:53;7.85;;;5.85;;
45536;SDS011;31262;51.978;5.924;2022-08-19T15:07:20;7.88;;;4.60;;
45536;SDS011;31262;51.978;5.924;2022-08-19T15:09:48;7.03;;;5.00;;
45536;SDS011;31262;51.978;5.924;2022-08-19T15:12:14;7.63;;;4.70;;
45536;SDS011;31262;51.978;5.924;2022-08-19T15:14:40;4.97;;;2.33;;
45536;SDS011;31262;51.978;5.924;2022-08-19T15:17:07;4.85;;;2.85;;
45536;SDS011;31262;51.978;5.924;2022-08-19T15:19:32;4.00;;;2.72;;